createdAt,value
2023-06-05T00:01:53.402Z,1.08
2023-06-05T00:04:25.756Z,1.13
2023-06-05T00:06:55.961Z,1.20
2023-06-05T00:09:25.721Z,1.33
2023-06-05T00:11:56.016Z,1.08
2023-06-05T00:14:25.965Z,1.05
2023-06-05T00:16:57.466Z,1.25
2023-06-05T00:19:30.963Z,1.40
2023-06-05T00:22:00.722Z,1.33
2023-06-05T00:24:30.603Z,1.17
2023-06-05T00:27:00.451Z,1.15
2023-06-05T00:29:30.575Z,1.00
2023-06-05T00:32:00.494Z,1.42
2023-06-05T00:34:33.114Z,1.23
2023-06-05T00:37:02.886Z,1.00
2023-06-05T00:39:32.591Z,1.30
2023-06-05T00:42:02.386Z,1.20
2023-06-05T00:44:32.101Z,1.65
2023-06-05T00:47:02.318Z,1.08
2023-06-05T00:49:35.849Z,1.10
2023-06-05T00:52:06.042Z,1.25
2023-06-05T00:54:36.494Z,1.20
2023-06-05T00:57:08.284Z,1.20
2023-06-05T00:59:41.787Z,1.52
2023-06-05T01:02:11.745Z,1.33
2023-06-05T01:04:45.009Z,1.08
2023-06-05T01:07:15.395Z,1.20
2023-06-05T01:09:45.771Z,1.30
2023-06-05T01:12:21.956Z,1.15
2023-06-05T01:14:53.270Z,1.08
2023-06-05T01:17:25.768Z,1.17
2023-06-05T01:19:59.832Z,1.33
2023-06-05T01:22:29.936Z,1.17
2023-06-05T01:25:02.692Z,1.10
2023-06-05T01:27:39.088Z,1.40
2023-06-05T01:30:18.527Z,1.33
2023-06-05T01:32:57.142Z,1.10
2023-06-05T01:35:29.367Z,1.10
2023-06-05T01:38:03.926Z,1.35
2023-06-05T01:40:38.288Z,1.27
2023-06-05T01:43:11.293Z,1.17
2023-06-05T01:45:42.196Z,1.00
2023-06-05T01:48:12.558Z,1.38
2023-06-05T01:50:43.673Z,1.33
2023-06-05T01:53:14.040Z,1.40
2023-06-05T01:55:47.904Z,1.15
2023-06-05T01:58:18.069Z,1.50
2023-06-05T02:00:48.085Z,1.50
2023-06-05T02:03:20.821Z,1.77
2023-06-05T02:05:52.478Z,1.60
2023-06-05T02:08:24.052Z,1.80
2023-06-05T02:10:56.865Z,1.88
2023-06-05T02:13:28.941Z,2.22
2023-06-05T02:15:58.820Z,1.60
2023-06-05T02:18:30.822Z,1.50
2023-06-05T02:21:00.589Z,1.60
2023-06-05T02:23:30.805Z,1.40
2023-06-05T02:26:03.206Z,1.27
2023-06-05T02:28:33.316Z,1.50
2023-06-05T02:31:03.719Z,1.45
2023-06-05T02:33:33.468Z,1.55
2023-06-05T02:36:03.209Z,1.40
2023-06-05T02:38:33.187Z,1.83
2023-06-05T02:41:05.778Z,1.27
2023-06-05T02:43:35.568Z,1.40
2023-06-05T02:46:05.543Z,1.35
2023-06-05T02:48:35.626Z,1.20
2023-06-05T02:51:07.842Z,1.35
2023-06-05T02:53:38.026Z,1.13
2023-06-05T02:56:10.455Z,1.30
2023-06-05T02:58:40.952Z,1.88
2023-06-05T03:01:12.603Z,1.23
2023-06-05T03:03:50.047Z,1.45
2023-06-05T03:06:28.412Z,1.50
2023-06-05T03:08:59.435Z,1.88
2023-06-05T03:11:32.595Z,1.65
2023-06-05T03:14:02.957Z,1.80
2023-06-05T03:16:42.599Z,1.70
2023-06-05T03:19:13.295Z,1.70
2023-06-05T03:21:45.055Z,1.38
2023-06-05T03:24:18.087Z,1.50
2023-06-05T03:26:55.971Z,1.65
2023-06-05T03:29:26.670Z,1.50
2023-06-05T03:31:56.614Z,1.63
2023-06-05T03:34:27.114Z,1.17
2023-06-05T03:37:01.220Z,1.27
2023-06-05T03:39:32.265Z,1.40
2023-06-05T03:42:08.140Z,1.55
2023-06-05T03:44:37.994Z,1.42
2023-06-05T03:47:09.304Z,1.73
2023-06-05T03:49:47.250Z,1.52
2023-06-05T03:52:24.757Z,1.50
2023-06-05T03:54:56.884Z,1.73
2023-06-05T03:57:29.450Z,1.45
2023-06-05T03:59:59.244Z,1.40
2023-06-05T04:02:29.254Z,1.40
2023-06-05T04:04:59.122Z,1.42
2023-06-05T04:07:29.338Z,1.40
2023-06-05T04:09:59.388Z,1.85
2023-06-05T04:12:31.997Z,1.30
2023-06-05T04:15:03.839Z,1.42
2023-06-05T04:17:33.932Z,1.48
2023-06-05T04:20:04.223Z,1.67
2023-06-05T04:22:35.330Z,1.58
2023-06-05T04:25:05.101Z,1.50
2023-06-05T04:27:37.874Z,1.40
2023-06-05T04:30:09.638Z,1.58
2023-06-05T04:32:40.767Z,1.67
2023-06-05T04:35:12.813Z,1.70
2023-06-05T04:37:42.918Z,2.65
2023-06-05T04:40:12.911Z,2.60
2023-06-05T04:42:46.131Z,2.00
2023-06-05T04:45:17.878Z,1.83
2023-06-05T04:47:50.962Z,2.60
2023-06-05T04:50:27.395Z,2.65
2023-06-05T04:53:10.153Z,2.97
2023-06-05T04:55:41.190Z,2.65
2023-06-05T04:58:14.602Z,2.05
2023-06-05T05:00:45.681Z,1.60
2023-06-05T05:03:18.843Z,2.38
2023-06-05T05:05:49.427Z,1.67
2023-06-05T05:08:21.944Z,1.95
2023-06-05T05:10:51.809Z,1.70
2023-06-05T05:13:24.294Z,1.45
2023-06-05T05:15:55.647Z,1.33
2023-06-05T05:18:25.449Z,1.25
2023-06-05T05:20:55.246Z,1.20
2023-06-05T05:23:27.267Z,1.40
2023-06-05T05:25:57.141Z,1.38
2023-06-05T05:28:29.700Z,1.30
2023-06-05T05:31:00.034Z,1.63
2023-06-05T05:33:29.799Z,1.27
2023-06-05T05:35:59.703Z,1.50
2023-06-05T05:38:29.404Z,1.60
2023-06-05T05:40:59.146Z,1.40
2023-06-05T05:43:31.692Z,1.40
2023-06-05T05:46:01.456Z,1.50
2023-06-05T05:48:32.045Z,1.70
2023-06-05T05:51:01.917Z,1.75
2023-06-05T05:53:31.975Z,1.80
2023-06-05T05:56:01.962Z,1.63
2023-06-05T05:58:34.298Z,1.90
2023-06-05T06:01:04.298Z,1.67
2023-06-05T06:03:34.896Z,1.70
2023-06-05T06:06:04.939Z,1.73
2023-06-05T06:08:34.688Z,1.30
2023-06-05T06:11:05.278Z,1.52
2023-06-05T06:13:37.742Z,1.63
2023-06-05T06:16:07.858Z,1.90
2023-06-05T06:18:37.651Z,1.80
2023-06-05T06:21:08.326Z,1.60
2023-06-05T06:23:38.208Z,1.90
2023-06-05T06:26:09.387Z,1.77
2023-06-05T06:28:41.714Z,1.58
2023-06-05T06:31:11.920Z,1.98
2023-06-05T06:33:41.998Z,1.70
2023-06-05T06:36:11.901Z,1.80
2023-06-05T06:38:41.626Z,1.60
2023-06-05T06:41:11.463Z,2.50
2023-06-05T06:43:43.833Z,1.75
2023-06-05T06:46:14.966Z,3.15
2023-06-05T06:48:44.871Z,1.98
2023-06-05T06:51:14.615Z,1.70
2023-06-05T06:53:44.439Z,2.45
2023-06-05T06:56:16.385Z,1.50
2023-06-05T06:58:49.383Z,1.80
2023-06-05T07:01:21.091Z,1.25
2023-06-05T07:03:50.909Z,1.20
2023-06-05T07:06:23.013Z,1.13
2023-06-05T07:08:52.982Z,1.20
2023-06-05T07:11:23.017Z,1.42
2023-06-05T07:13:55.645Z,1.45
2023-06-05T07:16:25.387Z,1.00
2023-06-05T07:18:56.302Z,1.60
2023-06-05T07:21:26.228Z,1.20
2023-06-05T07:23:55.960Z,1.20
2023-06-05T07:26:25.774Z,1.25
2023-06-05T07:28:58.078Z,1.30
2023-06-05T07:31:27.832Z,1.20
2023-06-05T07:33:57.607Z,0.90
2023-06-05T07:36:27.359Z,1.30
2023-06-05T07:38:57.718Z,1.15
2023-06-05T07:41:27.484Z,1.30
2023-06-05T07:43:59.901Z,1.52
2023-06-05T07:46:29.705Z,1.35
2023-06-05T07:49:02.323Z,1.50
2023-06-05T07:51:36.912Z,1.13
2023-06-05T07:54:06.732Z,1.40
2023-06-05T07:56:37.806Z,1.30
2023-06-05T07:59:11.807Z,1.20
2023-06-05T08:01:42.322Z,1.15
2023-06-05T08:04:13.234Z,1.30
2023-06-05T08:06:43.216Z,1.25
2023-06-05T08:09:13.433Z,0.98
2023-06-05T08:11:43.544Z,1.30
2023-06-05T08:14:15.891Z,1.30
2023-06-05T08:16:45.641Z,1.33
2023-06-05T08:19:15.413Z,1.63
2023-06-05T08:21:45.181Z,1.38
2023-06-05T08:24:14.873Z,2.40
2023-06-05T08:26:44.599Z,2.90
2023-06-05T08:29:16.955Z,2.03
2023-06-05T08:31:46.767Z,1.98
2023-06-05T08:34:16.565Z,2.03
2023-06-05T08:36:46.337Z,1.90
2023-06-05T08:39:16.719Z,1.20
2023-06-05T08:41:47.038Z,1.20
2023-06-05T08:44:19.439Z,1.42
2023-06-05T08:46:50.579Z,1.10
2023-06-05T08:49:25.534Z,1.10
2023-06-05T08:51:57.425Z,1.33
2023-06-05T08:54:27.305Z,1.23
2023-06-05T08:56:57.273Z,1.02
2023-06-05T08:59:30.337Z,1.33
2023-06-05T09:02:00.374Z,1.20
2023-06-05T09:04:31.577Z,1.60
2023-06-05T09:07:01.750Z,1.27
2023-06-05T09:09:31.554Z,1.08
2023-06-05T09:12:09.979Z,0.90
2023-06-05T09:14:42.378Z,1.00
2023-06-05T09:17:18.135Z,0.98
2023-06-05T09:19:48.596Z,1.02
2023-06-05T09:22:19.996Z,0.80
2023-06-05T09:25:02.642Z,1.10
2023-06-05T09:27:32.425Z,1.00
2023-06-05T09:30:09.207Z,1.25
2023-06-05T09:32:40.629Z,1.00
2023-06-05T09:35:12.587Z,1.17
2023-06-05T09:37:46.912Z,1.17
2023-06-05T09:40:18.345Z,0.90
2023-06-05T09:42:48.141Z,1.23
2023-06-05T09:45:20.660Z,1.17
2023-06-05T09:47:54.346Z,1.23
2023-06-05T09:50:26.237Z,0.90
2023-06-05T09:52:58.829Z,1.25
2023-06-05T09:55:29.652Z,1.27
2023-06-05T09:58:03.576Z,1.13
2023-06-05T10:00:37.931Z,0.98
2023-06-05T10:03:12.089Z,1.10
2023-06-05T10:05:43.990Z,1.02
2023-06-05T10:08:15.367Z,1.08
2023-06-05T10:10:46.252Z,0.95
2023-06-05T10:13:19.440Z,1.10
2023-06-05T10:15:56.089Z,0.90
2023-06-05T10:18:26.630Z,1.20
2023-06-05T10:20:57.883Z,0.90
2023-06-05T10:23:28.861Z,1.20
2023-06-05T10:25:59.838Z,1.45
2023-06-05T10:28:43.867Z,1.27
2023-06-05T10:31:27.836Z,1.40
2023-06-05T10:34:07.977Z,1.50
2023-06-05T10:36:58.202Z,1.48
2023-06-05T10:39:29.915Z,1.40
2023-06-05T10:42:00.343Z,1.05
2023-06-05T10:44:45.971Z,1.02
2023-06-05T10:47:46.888Z,1.50
2023-06-05T10:50:32.409Z,1.40
2023-06-05T10:53:02.434Z,1.55
2023-06-05T10:55:45.743Z,1.20
2023-06-05T10:58:18.012Z,1.00
2023-06-05T11:01:19.700Z,1.10
2023-06-05T11:04:02.997Z,0.88
2023-06-05T11:06:35.798Z,1.38
2023-06-05T11:09:13.760Z,1.50
2023-06-05T11:12:00.199Z,1.02
2023-06-05T11:14:50.728Z,0.90
2023-06-05T11:17:30.669Z,1.00
2023-06-05T11:20:00.767Z,0.90
2023-06-05T11:22:36.903Z,0.93
2023-06-05T11:25:34.268Z,1.13
2023-06-05T11:28:06.824Z,0.90
2023-06-05T11:30:48.893Z,1.13
2023-06-05T11:33:22.770Z,1.40
2023-06-05T11:35:54.085Z,0.85
2023-06-05T11:38:26.910Z,1.08
2023-06-05T11:40:58.236Z,1.33
2023-06-05T11:43:28.016Z,1.17
2023-06-05T11:45:59.014Z,1.23
2023-06-05T11:48:29.882Z,1.50
2023-06-05T11:51:02.004Z,1.08
2023-06-05T11:53:38.515Z,1.10
2023-06-05T11:56:17.889Z,1.20
2023-06-05T11:58:48.281Z,1.17
2023-06-05T12:01:23.452Z,1.17
2023-06-05T12:04:06.360Z,1.10
2023-06-05T12:06:38.668Z,0.95
2023-06-05T12:09:15.718Z,1.23
2023-06-05T12:11:46.653Z,1.17
2023-06-05T12:14:17.864Z,1.20
2023-06-05T12:16:47.566Z,1.35
2023-06-05T12:19:19.757Z,1.20
2023-06-05T12:21:51.762Z,1.27
2023-06-05T12:24:29.845Z,1.30
2023-06-05T12:27:00.786Z,1.20
2023-06-05T12:29:32.290Z,1.13
2023-06-05T12:32:03.525Z,1.00
2023-06-05T12:37:31.259Z,1.20
2023-06-05T12:40:08.521Z,1.10
2023-06-05T12:42:39.475Z,1.15
2023-06-05T12:45:11.131Z,1.10
2023-06-05T12:47:42.605Z,1.23
2023-06-05T12:50:15.084Z,1.13
2023-06-05T12:52:45.550Z,1.48
2023-06-05T12:55:17.874Z,1.73
2023-06-05T12:57:47.762Z,1.20
2023-06-05T13:00:20.220Z,1.23
2023-06-05T13:02:50.142Z,1.40
2023-06-05T13:05:19.941Z,1.23
2023-06-05T13:07:51.016Z,1.42
2023-06-05T13:10:23.842Z,1.30
2023-06-05T13:12:53.766Z,1.30
2023-06-05T13:15:23.513Z,1.20
2023-06-05T13:17:53.267Z,1.40
2023-06-05T13:20:23.042Z,1.70
2023-06-05T13:22:52.915Z,1.17
2023-06-05T13:25:25.286Z,1.67
2023-06-05T13:27:55.097Z,1.30
2023-06-05T13:30:25.785Z,1.30
2023-06-05T13:32:55.895Z,1.40
2023-06-05T13:35:25.837Z,1.30
2023-06-05T13:37:55.532Z,1.30
2023-06-05T13:40:28.158Z,1.38
2023-06-05T13:42:58.007Z,1.38
2023-06-05T13:45:27.888Z,1.27
2023-06-05T13:47:57.969Z,1.60
2023-06-05T13:50:28.005Z,1.30
2023-06-05T13:52:57.789Z,1.48
2023-06-05T13:55:30.167Z,1.38
2023-06-05T13:58:02.631Z,1.23
2023-06-05T14:00:33.280Z,1.60
2023-06-05T14:03:03.391Z,1.30
2023-06-05T14:05:34.201Z,1.42
2023-06-05T14:08:03.964Z,1.50
2023-06-05T14:10:38.014Z,1.45
2023-06-05T14:13:08.265Z,1.65
2023-06-05T14:15:38.383Z,1.38
2023-06-05T14:18:10.734Z,1.40
2023-06-05T14:20:40.905Z,1.60
2023-06-05T14:23:11.700Z,1.38
2023-06-05T14:25:43.972Z,1.08
2023-06-05T14:28:13.725Z,1.05
2023-06-05T14:30:43.597Z,1.23
2023-06-05T14:33:14.272Z,1.65
2023-06-05T14:35:44.179Z,1.23
2023-06-05T14:38:14.339Z,1.10
2023-06-05T14:40:49.143Z,1.15
2023-06-05T14:43:18.894Z,1.20
2023-06-05T14:45:48.717Z,1.30
2023-06-05T14:48:18.526Z,1.50
2023-06-05T14:50:48.352Z,1.25
2023-06-05T14:53:18.107Z,1.40
2023-06-05T14:55:50.474Z,1.33
2023-06-05T14:58:20.639Z,1.20
2023-06-05T15:00:52.977Z,1.17
2023-06-05T15:03:26.010Z,1.35
2023-06-05T15:05:57.510Z,1.23
2023-06-05T15:08:28.577Z,1.88
2023-06-05T15:11:04.093Z,1.30
2023-06-05T15:13:33.919Z,1.08
2023-06-05T15:16:04.145Z,1.50
2023-06-05T15:18:33.881Z,1.38
2023-06-05T15:21:03.735Z,1.48
2023-06-05T15:23:33.659Z,1.30
2023-06-05T15:26:06.065Z,1.45
2023-06-05T15:28:36.023Z,1.30
2023-06-05T15:31:08.146Z,1.48
2023-06-05T15:33:38.471Z,1.10
2023-06-05T15:36:09.166Z,1.60
2023-06-05T15:38:39.253Z,1.00
2023-06-05T15:41:14.134Z,1.48
2023-06-05T15:43:44.738Z,1.45
2023-06-05T15:46:14.669Z,1.40
2023-06-05T15:48:44.459Z,1.15
2023-06-05T15:51:14.382Z,1.25
2023-06-05T15:53:55.830Z,1.25
2023-06-05T15:56:30.757Z,1.75
2023-06-05T15:59:00.511Z,1.70
2023-06-05T16:01:30.294Z,1.33
2023-06-05T16:04:00.293Z,1.38
2023-06-05T16:06:30.209Z,1.35
2023-06-05T16:09:00.621Z,1.63
2023-06-05T16:11:33.006Z,1.40
2023-06-05T16:14:03.882Z,1.27
2023-06-05T16:16:33.620Z,1.38
2023-06-05T16:19:04.345Z,1.77
2023-06-05T16:21:35.580Z,1.10
2023-06-05T16:24:05.533Z,1.88
2023-06-05T16:26:39.526Z,1.40
2023-06-05T16:29:09.498Z,1.50
2023-06-05T16:31:39.505Z,1.75
2023-06-05T16:34:15.959Z,1.25
2023-06-05T16:36:46.038Z,1.17
2023-06-05T16:39:17.016Z,1.40
2023-06-05T16:41:49.407Z,1.17
2023-06-05T16:44:19.510Z,1.40
2023-06-05T16:46:50.082Z,1.60
2023-06-05T16:49:20.048Z,1.70
2023-06-05T16:51:49.777Z,1.42
2023-06-05T16:54:21.393Z,1.48
2023-06-05T16:56:54.623Z,1.17
2023-06-05T16:59:24.442Z,1.13
2023-06-05T17:01:54.752Z,1.20
2023-06-05T17:04:25.255Z,1.35
2023-06-05T17:06:55.542Z,1.40
2023-06-05T17:09:28.239Z,1.88
2023-06-05T17:12:00.929Z,1.25
2023-06-05T17:14:30.736Z,1.50
2023-06-05T17:17:01.633Z,1.27
2023-06-05T17:19:33.829Z,1.83
2023-06-05T17:22:03.685Z,1.55
2023-06-05T17:24:34.158Z,1.27
2023-06-05T17:27:07.235Z,1.25
2023-06-05T17:29:36.997Z,1.23
2023-06-05T17:32:09.707Z,1.50
2023-06-05T17:34:39.874Z,1.30
2023-06-05T17:37:09.862Z,1.00
2023-06-05T17:39:39.603Z,1.30
2023-06-05T17:42:12.455Z,1.50
2023-06-05T17:44:42.291Z,1.50
2023-06-05T17:47:12.118Z,1.63
2023-06-05T18:01:56.926Z,1.48
2023-06-05T18:04:27.256Z,1.30
2023-06-05T18:06:57.322Z,1.55
2023-06-05T18:09:27.235Z,1.40
2023-06-05T18:11:56.970Z,1.27
2023-06-05T18:14:27.122Z,1.30
2023-06-05T18:16:59.848Z,1.10
2023-06-05T18:19:29.769Z,1.23
2023-06-05T18:21:59.768Z,1.17
2023-06-05T18:24:29.719Z,1.33
2023-06-05T18:26:59.686Z,1.95
2023-06-05T18:29:29.347Z,1.38
2023-06-05T18:32:01.877Z,1.38
2023-06-05T18:34:34.530Z,1.52
2023-06-05T18:37:04.287Z,1.50
2023-06-05T18:39:33.957Z,1.60
2023-06-05T18:42:03.740Z,1.30
2023-06-05T18:44:33.479Z,1.30
2023-06-05T18:47:06.383Z,1.45
2023-06-05T18:49:36.639Z,1.20
2023-06-05T18:52:07.623Z,1.60
2023-06-05T18:54:37.998Z,1.30
2023-06-05T18:57:08.708Z,1.42
2023-06-05T18:59:38.455Z,1.42
2023-06-05T19:02:10.967Z,1.70
2023-06-05T19:04:42.130Z,1.50
2023-06-05T19:07:11.806Z,1.20
2023-06-05T19:09:41.495Z,1.27
2023-06-05T19:12:12.267Z,1.30
2023-06-05T19:14:42.073Z,1.50
2023-06-05T19:17:14.540Z,1.45
2023-06-05T19:19:44.430Z,1.50
2023-06-05T19:22:14.161Z,1.40
2023-06-05T19:24:43.903Z,1.52
2023-06-05T19:27:13.608Z,1.27
2023-06-05T19:29:43.618Z,1.50
2023-06-05T19:32:15.993Z,1.77
2023-06-05T19:34:46.037Z,1.65
2023-06-05T19:37:16.214Z,1.42
2023-06-05T19:39:46.056Z,1.50
2023-06-05T19:42:15.817Z,1.58
2023-06-05T19:44:45.582Z,1.90
2023-06-05T19:47:18.007Z,1.33
2023-06-05T19:49:47.823Z,1.75
2023-06-05T19:52:17.563Z,1.70
2023-06-05T19:54:47.528Z,1.60
2023-06-05T19:57:17.383Z,1.20
2023-06-05T19:59:47.240Z,1.52
2023-06-05T20:02:19.527Z,1.52
2023-06-05T20:04:49.281Z,1.65
2023-06-05T20:07:19.006Z,1.60
2023-06-05T20:09:48.685Z,1.50
2023-06-05T20:12:18.584Z,1.58
2023-06-05T20:14:48.730Z,1.92
2023-06-05T20:17:21.225Z,1.60
2023-06-05T20:19:51.177Z,1.80
2023-06-05T20:22:21.573Z,1.55
2023-06-05T20:24:54.836Z,1.42
2023-06-05T20:27:24.513Z,1.67
2023-06-05T20:29:54.185Z,1.70
2023-06-05T20:32:26.469Z,1.80
2023-06-05T20:34:58.994Z,1.60
2023-06-05T20:37:31.634Z,1.70
2023-06-05T20:40:06.599Z,1.67
2023-06-05T20:42:36.946Z,2.03
2023-06-05T20:45:08.895Z,1.67
2023-06-05T20:47:42.279Z,1.90
2023-06-05T20:50:15.392Z,1.73
2023-06-05T20:52:45.104Z,2.10
2023-06-05T20:55:14.825Z,1.80
2023-06-05T20:57:44.568Z,2.47
2023-06-05T21:00:16.045Z,2.08
2023-06-05T21:02:48.678Z,2.00
2023-06-05T21:05:18.608Z,1.70
2023-06-05T21:07:49.416Z,1.90
2023-06-05T21:10:19.226Z,2.03
2023-06-05T21:12:48.990Z,2.00
2023-06-05T21:15:19.135Z,2.25
2023-06-05T21:17:51.880Z,2.20
2023-06-05T21:20:21.674Z,2.15
2023-06-05T21:22:51.346Z,1.90
2023-06-05T21:25:21.102Z,1.80
2023-06-05T21:27:50.774Z,2.10
2023-06-05T21:30:20.526Z,2.10
2023-06-05T21:32:53.602Z,2.35
2023-06-05T21:35:23.551Z,2.47
2023-06-05T21:37:53.587Z,2.20
2023-06-05T21:40:23.312Z,2.28
2023-06-05T21:42:53.391Z,2.30
2023-06-05T21:45:23.511Z,2.30
2023-06-05T21:47:55.988Z,2.45
2023-06-05T21:50:25.953Z,2.58
2023-06-05T21:52:56.140Z,2.20
2023-06-05T21:55:26.975Z,2.00
2023-06-05T21:57:57.903Z,2.08
2023-06-05T22:00:27.897Z,2.33
2023-06-05T22:03:00.284Z,2.00
2023-06-05T22:05:30.857Z,2.28
2023-06-05T22:08:03.128Z,2.40
2023-06-05T22:10:32.869Z,2.25
2023-06-05T22:13:02.597Z,2.50
2023-06-05T22:15:34.055Z,2.88
2023-06-05T22:18:07.068Z,2.58
2023-06-05T22:20:40.995Z,2.80
2023-06-05T22:23:10.717Z,2.45
2023-06-05T22:25:52.824Z,3.72
2023-06-05T22:28:23.019Z,2.75
2023-06-05T22:30:53.101Z,3.10
2023-06-05T22:33:25.725Z,3.58
2023-06-05T22:35:55.402Z,3.33
2023-06-05T22:38:27.033Z,3.92
2023-06-05T22:40:56.829Z,4.20
2023-06-05T22:43:26.595Z,4.00
2023-06-05T22:45:56.644Z,4.13
2023-06-05T22:48:30.108Z,3.72
2023-06-05T22:51:00.469Z,3.88
2023-06-05T22:53:31.719Z,3.63
2023-06-05T22:56:01.522Z,3.35
2023-06-05T22:58:31.250Z,2.95
2023-06-05T23:01:01.356Z,3.08
2023-06-05T23:03:34.594Z,3.08
2023-06-05T23:06:05.338Z,3.30
2023-06-05T23:08:35.050Z,2.67
2023-06-05T23:11:04.799Z,3.08
2023-06-05T23:13:34.484Z,2.70
2023-06-05T23:16:04.467Z,3.08
2023-06-05T23:18:36.749Z,2.63
2023-06-05T23:21:06.878Z,3.00
2023-06-05T23:23:36.563Z,3.05
2023-06-05T23:26:08.630Z,2.50
2023-06-05T23:28:38.950Z,2.70
2023-06-05T23:31:09.120Z,2.58
2023-06-05T23:33:41.536Z,2.58
2023-06-05T23:36:12.728Z,2.72
2023-06-05T23:38:42.481Z,2.60
2023-06-05T23:41:12.300Z,2.63
2023-06-05T23:43:42.918Z,2.42
2023-06-05T23:46:12.982Z,2.38
2023-06-05T23:48:45.281Z,2.50
2023-06-05T23:51:15.507Z,2.72
2023-06-05T23:53:45.215Z,2.03
2023-06-05T23:56:14.890Z,2.20
2023-06-05T23:58:44.721Z,2.00
